createdAt,value
2024-05-09T00:01:09.831Z,10.97
2024-05-09T00:04:17.400Z,10.91
2024-05-09T00:07:25.983Z,10.99
2024-05-09T00:10:36.355Z,10.98
2024-05-09T00:13:43.828Z,10.78
2024-05-09T00:16:49.629Z,10.69
2024-05-09T00:19:57.254Z,10.61
2024-05-09T00:23:02.408Z,10.53
2024-05-09T00:26:07.739Z,10.52
2024-05-09T00:29:12.553Z,10.54
2024-05-09T00:32:17.544Z,10.45
2024-05-09T00:35:26.480Z,10.48
2024-05-09T00:38:31.629Z,10.28
2024-05-09T00:41:36.635Z,10.29
2024-05-09T00:44:41.742Z,10.22
2024-05-09T00:47:48.784Z,10.07
2024-05-09T00:50:57.766Z,10.05
2024-05-09T00:54:05.750Z,9.99
2024-05-09T00:57:10.586Z,10.05
2024-05-09T01:00:26.077Z,9.98
2024-05-09T01:03:36.212Z,9.86
2024-05-09T01:06:43.704Z,9.86
2024-05-09T01:09:48.523Z,9.85
2024-05-09T01:12:53.329Z,9.75
2024-05-09T01:15:58.684Z,9.82
2024-05-09T01:19:05.380Z,9.86
2024-05-09T01:22:13.093Z,9.79
2024-05-09T01:25:22.468Z,9.89
2024-05-09T01:28:27.344Z,10.00
2024-05-09T01:31:32.607Z,10.00
2024-05-09T01:34:40.600Z,10.09
2024-05-09T01:37:45.481Z,10.10
2024-05-09T01:40:53.251Z,10.16
2024-05-09T01:43:58.149Z,10.10
2024-05-09T01:47:02.966Z,10.09
2024-05-09T01:50:10.807Z,10.05
2024-05-09T01:53:16.903Z,10.00
2024-05-09T01:56:24.327Z,9.99
2024-05-09T01:59:29.212Z,9.79
2024-05-09T02:02:34.234Z,9.72
2024-05-09T02:05:39.304Z,9.68
2024-05-09T02:08:44.588Z,9.62
2024-05-09T02:11:53.454Z,9.56
2024-05-09T02:14:58.418Z,9.46
2024-05-09T02:18:03.628Z,9.44
2024-05-09T02:21:08.788Z,9.38
2024-05-09T02:24:13.739Z,9.30
2024-05-09T02:27:21.421Z,9.28
2024-05-09T02:30:36.093Z,9.18
2024-05-09T02:33:45.448Z,9.13
2024-05-09T02:36:50.786Z,9.14
2024-05-09T02:39:53.000Z,9.09
2024-05-09T02:43:00.658Z,9.03
2024-05-09T02:46:02.975Z,8.96
2024-05-09T02:49:07.868Z,8.89
2024-05-09T02:52:10.159Z,8.83
2024-05-09T02:55:15.211Z,8.76
2024-05-09T02:58:20.139Z,8.71
2024-05-09T03:01:25.076Z,8.69
2024-05-09T03:04:27.527Z,8.62
2024-05-09T03:07:34.746Z,8.53
2024-05-09T03:10:38.763Z,8.59
2024-05-09T03:13:46.988Z,8.52
2024-05-09T03:16:49.352Z,8.52
2024-05-09T03:19:54.161Z,8.43
2024-05-09T03:22:59.068Z,8.49
2024-05-09T03:26:01.394Z,8.43
2024-05-09T03:29:11.848Z,8.42
2024-05-09T03:32:16.814Z,8.29
2024-05-09T03:35:21.886Z,8.35
2024-05-09T03:38:26.943Z,8.35
2024-05-09T03:41:31.949Z,8.37
2024-05-09T03:44:39.410Z,8.36
2024-05-09T03:47:41.854Z,8.28
2024-05-09T03:50:48.928Z,8.17
2024-05-09T03:53:51.540Z,8.21
2024-05-09T03:56:56.324Z,8.19
2024-05-09T04:00:01.515Z,8.29
2024-05-09T04:03:12.090Z,8.29
2024-05-09T04:06:23.921Z,8.31
2024-05-09T04:09:28.712Z,8.33
2024-05-09T04:12:33.589Z,8.39
2024-05-09T04:15:38.798Z,8.45
2024-05-09T04:18:43.659Z,8.46
2024-05-09T04:21:45.969Z,8.43
2024-05-09T04:24:52.830Z,8.25
2024-05-09T04:27:57.629Z,8.34
2024-05-09T04:31:02.705Z,8.44
2024-05-09T04:34:08.094Z,8.53
2024-05-09T04:37:10.721Z,8.55
2024-05-09T04:40:24.248Z,8.64
2024-05-09T04:43:36.215Z,8.67
2024-05-09T04:46:43.618Z,8.61
2024-05-09T04:49:48.467Z,8.67
2024-05-09T04:52:53.373Z,8.71
2024-05-09T04:55:56.592Z,8.80
2024-05-09T04:59:01.527Z,8.84
2024-05-09T05:02:06.481Z,9.00
2024-05-09T05:05:12.115Z,9.00
2024-05-09T05:08:15.565Z,9.00
2024-05-09T05:11:21.007Z,9.06
2024-05-09T05:14:23.360Z,9.14
2024-05-09T05:17:33.350Z,9.19
2024-05-09T05:20:38.656Z,9.26
2024-05-09T05:23:43.871Z,9.30
2024-05-09T05:26:46.170Z,9.42
2024-05-09T05:29:54.011Z,9.53
2024-05-09T05:32:59.150Z,9.64
2024-05-09T05:36:04.088Z,9.62
2024-05-09T05:39:06.366Z,9.67
2024-05-09T05:42:12.014Z,9.82
2024-05-09T05:45:14.423Z,9.86
2024-05-09T05:48:22.164Z,10.10
2024-05-09T05:51:24.577Z,10.23
2024-05-09T05:54:29.834Z,10.29
2024-05-09T05:57:34.618Z,10.40
2024-05-09T06:00:40.738Z,10.40
2024-05-09T06:03:46.624Z,10.50
2024-05-09T06:06:52.039Z,10.66
2024-05-09T06:09:54.277Z,10.51
2024-05-09T06:12:59.061Z,10.73
2024-05-09T06:16:02.460Z,11.17
2024-05-09T06:19:10.136Z,11.23
2024-05-09T06:22:12.831Z,11.38
2024-05-09T06:25:17.813Z,11.56
2024-05-09T06:28:22.576Z,11.65
2024-05-09T06:31:52.770Z,11.94
2024-05-09T06:35:10.073Z,12.12
2024-05-09T06:38:18.730Z,12.23
2024-05-09T06:41:30.551Z,12.48
2024-05-09T06:44:39.425Z,12.58
2024-05-09T06:47:45.806Z,13.00
2024-05-09T06:50:50.901Z,13.10
2024-05-09T06:53:57.086Z,13.29
2024-05-09T06:57:01.296Z,13.58
2024-05-09T07:00:15.490Z,13.70
2024-05-09T07:03:24.709Z,13.92
2024-05-09T07:06:32.176Z,13.83
2024-05-09T07:09:37.465Z,14.11
2024-05-09T07:12:42.282Z,14.35
2024-05-09T07:15:44.692Z,14.64
2024-05-09T07:18:54.926Z,14.66
2024-05-09T07:22:02.588Z,14.85
2024-05-09T07:25:05.535Z,15.05
2024-05-09T07:28:14.783Z,15.34
2024-05-09T07:31:17.394Z,15.24
2024-05-09T07:34:22.494Z,15.61
2024-05-09T07:37:27.360Z,15.61
2024-05-09T07:40:36.162Z,15.84
2024-05-09T07:43:39.228Z,15.98
2024-05-09T07:47:48.509Z,15.97
2024-05-09T07:53:38.521Z,16.21
2024-05-09T07:56:44.742Z,16.37
2024-05-09T07:59:50.395Z,16.55
2024-05-09T08:02:58.389Z,16.63
2024-05-09T08:06:04.969Z,16.73
2024-05-09T08:09:13.895Z,17.17
2024-05-09T08:12:24.042Z,17.01
2024-05-09T08:15:26.593Z,17.07
2024-05-09T08:18:32.069Z,16.65
2024-05-09T08:21:34.543Z,16.77
2024-05-09T08:24:42.002Z,17.10
2024-05-09T08:27:44.283Z,17.37
2024-05-09T08:30:49.693Z,17.66
2024-05-09T08:33:52.495Z,17.83
2024-05-09T08:37:01.676Z,18.14
2024-05-09T08:40:23.484Z,18.19
2024-05-09T08:43:38.246Z,18.25
2024-05-09T08:46:44.068Z,18.49
2024-05-09T08:49:51.860Z,18.57
2024-05-09T08:52:56.728Z,18.13
2024-05-09T08:56:05.187Z,18.56
2024-05-09T08:59:13.470Z,18.91
2024-05-09T09:02:18.635Z,19.21
2024-05-09T09:05:28.455Z,19.10
2024-05-09T09:08:31.031Z,19.07
2024-05-09T09:11:38.489Z,19.49
2024-05-09T09:14:43.500Z,19.65
2024-05-09T09:17:58.856Z,19.52
2024-05-09T09:21:01.185Z,19.60
2024-05-09T09:24:09.857Z,19.56
2024-05-09T09:27:16.734Z,19.74
2024-05-09T09:30:33.996Z,19.91
2024-05-09T09:33:45.235Z,20.06
2024-05-09T09:36:55.179Z,20.17
2024-05-09T09:40:06.936Z,20.39
2024-05-09T09:43:19.306Z,20.55
2024-05-09T09:46:29.026Z,20.50
2024-05-09T09:49:33.405Z,20.52
2024-05-09T09:52:39.205Z,20.78
2024-05-09T09:55:42.738Z,21.02
2024-05-09T09:58:51.677Z,20.87
2024-05-09T10:01:56.327Z,21.33
2024-05-09T10:05:03.572Z,21.47
2024-05-09T10:08:07.656Z,21.46
2024-05-09T10:11:12.693Z,21.13
2024-05-09T10:14:23.432Z,21.49
2024-05-09T10:17:28.946Z,21.34
2024-05-09T10:20:43.557Z,21.24
2024-05-09T10:24:00.461Z,21.40
2024-05-09T10:27:04.559Z,21.49
2024-05-09T10:30:17.882Z,20.60
2024-05-09T10:33:37.456Z,21.43
2024-05-09T10:36:45.287Z,21.37
2024-05-09T10:39:47.717Z,21.98
2024-05-09T10:42:52.842Z,22.38
2024-05-09T10:45:57.818Z,22.62
2024-05-09T10:49:07.056Z,21.68
2024-05-09T10:52:10.565Z,21.55
2024-05-09T10:55:15.486Z,22.24
2024-05-09T10:58:18.016Z,22.67
2024-05-09T11:01:26.005Z,22.47
2024-05-09T11:04:28.412Z,22.93
2024-05-09T11:07:33.448Z,23.44
2024-05-09T11:10:35.917Z,23.32
2024-05-09T11:13:42.204Z,22.65
2024-05-09T11:16:47.000Z,22.41
2024-05-09T11:19:53.483Z,22.53
2024-05-09T11:22:55.743Z,23.34
2024-05-09T11:26:01.405Z,23.43
2024-05-09T11:29:06.451Z,23.22
2024-05-09T11:32:16.579Z,23.04
2024-05-09T11:35:18.888Z,22.99
2024-05-09T11:38:23.659Z,22.99
2024-05-09T11:41:27.170Z,23.70
2024-05-09T11:44:32.221Z,23.99
2024-05-09T11:47:38.434Z,23.74
2024-05-09T11:50:43.297Z,24.36
2024-05-09T11:53:48.100Z,23.56
2024-05-09T11:56:51.645Z,23.77
2024-05-09T11:59:57.347Z,23.57
2024-05-09T12:03:04.628Z,23.61
2024-05-09T12:06:09.955Z,23.92
2024-05-09T12:09:14.812Z,24.00
2024-05-09T12:12:16.990Z,24.48
2024-05-09T12:15:21.723Z,25.02
2024-05-09T12:18:26.598Z,23.99
2024-05-09T12:21:31.560Z,24.26
2024-05-09T12:24:33.813Z,24.52
2024-05-09T12:27:40.085Z,24.48
2024-05-09T12:30:43.012Z,24.56
2024-05-09T12:33:51.094Z,24.90
2024-05-09T12:36:53.507Z,25.29
2024-05-09T12:39:58.408Z,24.10
2024-05-09T12:43:03.810Z,25.35
2024-05-09T12:46:08.750Z,24.84
2024-05-09T12:49:16.397Z,23.79
2024-05-09T12:52:22.733Z,23.96
2024-05-09T12:55:25.013Z,23.84
2024-05-09T12:58:30.179Z,24.34
2024-05-09T13:01:32.464Z,24.46
2024-05-09T13:04:40.014Z,24.34
2024-05-09T13:07:44.888Z,24.15
2024-05-09T13:10:50.373Z,24.93
2024-05-09T13:13:52.717Z,24.83
2024-05-09T13:16:57.519Z,24.43
2024-05-09T13:20:03.323Z,25.05
2024-05-09T13:23:09.789Z,25.90
2024-05-09T13:26:12.278Z,25.69
2024-05-09T13:29:17.392Z,25.64
2024-05-09T13:32:19.590Z,26.20
2024-05-09T13:35:27.467Z,26.36
2024-05-09T13:38:29.765Z,26.45
2024-05-09T13:41:34.627Z,26.30
2024-05-09T13:44:37.176Z,26.33
2024-05-09T13:47:42.039Z,25.79
2024-05-09T13:50:49.555Z,25.46
2024-05-09T13:53:56.698Z,26.33
2024-05-09T13:56:59.317Z,25.44
2024-05-09T14:00:07.015Z,25.57
2024-05-09T14:03:14.318Z,24.37
2024-05-09T14:06:22.341Z,25.28
2024-05-09T14:09:24.885Z,26.24
2024-05-09T14:12:29.636Z,26.43
2024-05-09T14:15:31.942Z,26.87
2024-05-09T14:18:37.459Z,27.28
2024-05-09T14:21:44.930Z,26.99
2024-05-09T14:24:49.719Z,26.42
2024-05-09T14:27:52.123Z,25.52
2024-05-09T14:30:57.987Z,26.00
2024-05-09T14:34:00.409Z,25.09
2024-05-09T14:37:08.326Z,26.25
2024-05-09T14:40:30.339Z,26.93
2024-05-09T14:43:40.264Z,27.68
2024-05-09T14:46:42.854Z,27.24
2024-05-09T14:49:47.783Z,27.21
2024-05-09T14:52:52.761Z,27.00
2024-05-09T14:55:57.790Z,27.67
2024-05-09T14:59:00.183Z,26.79
2024-05-09T15:02:05.086Z,27.16
2024-05-09T15:05:11.096Z,26.56
2024-05-09T15:08:20.033Z,26.94
2024-05-09T15:11:23.065Z,26.60
2024-05-09T15:14:27.909Z,26.55
2024-05-09T15:17:33.321Z,25.73
2024-05-09T15:20:37.290Z,25.62
2024-05-09T15:23:45.548Z,25.12
2024-05-09T15:26:47.826Z,25.75
2024-05-09T15:29:52.724Z,25.51
2024-05-09T15:32:57.648Z,24.58
2024-05-09T15:36:00.118Z,25.30
2024-05-09T15:39:07.575Z,25.68
2024-05-09T15:42:10.052Z,25.54
2024-05-09T15:45:15.023Z,26.18
2024-05-09T15:48:17.892Z,25.94
2024-05-09T15:51:22.956Z,26.34
2024-05-09T15:54:28.094Z,26.45
2024-05-09T15:57:33.074Z,26.25
2024-05-09T16:00:40.641Z,26.33
2024-05-09T16:03:48.109Z,25.87
2024-05-09T16:06:53.215Z,24.68
2024-05-09T16:09:58.743Z,24.11
2024-05-09T16:13:04.136Z,23.62
2024-05-09T16:16:07.113Z,23.44
2024-05-09T16:19:12.301Z,23.29
2024-05-09T16:22:14.800Z,22.94
2024-05-09T16:25:22.320Z,22.75
2024-05-09T16:28:27.467Z,22.36
2024-05-09T16:31:30.948Z,22.40
2024-05-09T16:34:35.862Z,22.32
2024-05-09T16:37:40.887Z,22.35
2024-05-09T16:40:46.613Z,21.96
2024-05-09T16:43:51.895Z,21.87
2024-05-09T16:46:54.195Z,21.95
2024-05-09T16:49:59.033Z,21.42
2024-05-09T16:53:01.941Z,21.22
2024-05-09T16:56:10.396Z,21.13
2024-05-09T16:59:12.822Z,20.82
2024-05-09T17:02:17.935Z,20.96
2024-05-09T17:05:21.664Z,20.97
2024-05-09T17:08:26.658Z,20.99
2024-05-09T17:11:35.619Z,20.97
2024-05-09T17:14:40.584Z,20.86
2024-05-09T17:17:45.506Z,20.76
2024-05-09T17:20:51.506Z,20.44
2024-05-09T17:23:55.639Z,20.32
2024-05-09T17:27:03.183Z,20.16
2024-05-09T17:30:10.036Z,20.13
2024-05-09T17:33:17.254Z,20.02
2024-05-09T17:36:19.915Z,19.90
2024-05-09T17:39:24.852Z,19.71
2024-05-09T17:42:29.668Z,19.60
2024-05-09T17:45:34.893Z,19.67
2024-05-09T17:48:40.197Z,19.50
2024-05-09T17:51:53.962Z,19.69
2024-05-09T17:54:56.253Z,19.79
2024-05-09T17:58:04.087Z,20.00
2024-05-09T18:01:09.574Z,20.00
2024-05-09T18:04:12.894Z,19.67
2024-05-09T18:07:18.000Z,19.68
2024-05-09T18:10:42.049Z,19.85
2024-05-09T18:13:50.851Z,19.45
2024-05-09T18:17:45.944Z,19.24
2024-05-09T18:20:48.564Z,19.24
2024-05-09T18:23:55.478Z,19.12
2024-05-09T18:27:02.837Z,19.05
2024-05-09T18:33:47.419Z,19.09
2024-05-09T18:36:50.917Z,19.18
2024-05-09T18:40:11.735Z,18.98
2024-05-09T18:43:14.290Z,18.74
2024-05-09T18:46:21.798Z,18.75
2024-05-09T18:49:24.209Z,18.54
2024-05-09T18:52:29.234Z,18.60
2024-05-09T18:55:31.469Z,18.49
2024-05-09T18:58:36.346Z,18.57
2024-05-09T19:01:42.247Z,18.52
2024-05-09T19:04:48.290Z,18.16
2024-05-09T19:07:53.200Z,18.13
2024-05-09T19:10:59.890Z,18.18
2024-05-09T19:14:07.260Z,18.05
2024-05-09T19:17:14.925Z,18.04
2024-05-09T19:20:28.180Z,18.02
2024-05-09T19:23:38.248Z,18.01
2024-05-09T19:26:46.055Z,17.84
2024-05-09T19:29:48.232Z,17.59
2024-05-09T19:32:55.639Z,17.69
2024-05-09T19:36:00.491Z,17.77
2024-05-09T19:39:02.946Z,17.66
2024-05-09T19:42:08.856Z,17.61
2024-05-09T19:45:11.061Z,17.44
2024-05-09T19:48:18.981Z,17.13
2024-05-09T19:51:21.285Z,17.12
2024-05-09T19:54:26.043Z,17.16
2024-05-09T19:57:28.273Z,17.19
2024-05-09T20:00:36.217Z,17.08
2024-05-09T20:03:43.108Z,16.97
2024-05-09T20:06:48.066Z,16.95
2024-05-09T20:09:50.338Z,16.86
2024-05-09T20:12:55.181Z,16.83
2024-05-09T20:16:01.556Z,16.55
2024-05-09T20:19:09.133Z,16.56
2024-05-09T20:22:11.893Z,16.66
2024-05-09T20:25:16.903Z,16.68
2024-05-09T20:28:19.444Z,16.57
2024-05-09T20:31:24.468Z,16.47
2024-05-09T20:34:32.122Z,16.42
2024-05-09T20:37:34.398Z,16.39
2024-05-09T20:40:40.021Z,16.24
2024-05-09T20:43:42.364Z,16.29
2024-05-09T20:46:47.862Z,16.28
2024-05-09T20:49:53.237Z,16.17
2024-05-09T20:52:58.097Z,16.05
2024-05-09T20:56:00.377Z,15.99
2024-05-09T20:59:05.114Z,15.94
2024-05-09T21:02:07.413Z,15.73
2024-05-09T21:05:15.872Z,15.71
2024-05-09T21:08:20.877Z,15.70
2024-05-09T21:11:26.060Z,15.59
2024-05-09T21:14:30.877Z,15.45
2024-05-09T21:17:34.128Z,15.39
2024-05-09T21:20:41.822Z,15.37
2024-05-09T21:23:44.324Z,15.35
2024-05-09T21:26:49.155Z,15.31
2024-05-09T21:29:54.254Z,15.18
2024-05-09T21:32:56.799Z,15.09
2024-05-09T21:36:08.411Z,14.93
2024-05-09T21:39:11.209Z,14.87
2024-05-09T21:42:15.969Z,14.79
2024-05-09T21:45:18.165Z,14.72
2024-05-09T21:48:23.081Z,14.66
2024-05-09T21:51:27.875Z,14.58
2024-05-09T21:54:33.008Z,14.58
2024-05-09T21:57:40.525Z,14.47
2024-05-09T22:00:46.474Z,14.41
2024-05-09T22:03:49.180Z,14.41
2024-05-09T22:06:57.157Z,14.34
2024-05-09T22:09:59.538Z,14.31
2024-05-09T22:13:05.191Z,14.19
2024-05-09T22:16:08.828Z,14.11
2024-05-09T22:19:13.703Z,14.13
2024-05-09T22:22:21.245Z,14.13
2024-05-09T22:25:23.917Z,14.00
2024-05-09T22:28:29.333Z,14.01
2024-05-09T22:31:31.702Z,13.98
2024-05-09T22:34:36.517Z,13.93
2024-05-09T22:37:41.460Z,13.83
2024-05-09T22:40:49.195Z,13.79
2024-05-09T22:43:52.369Z,13.77
2024-05-09T22:46:59.714Z,13.77
2024-05-09T22:50:02.084Z,13.77
2024-05-09T22:53:09.640Z,13.70
2024-05-09T22:56:20.202Z,13.71
2024-05-09T22:59:25.001Z,13.67
2024-05-09T23:02:27.279Z,13.65
2024-05-09T23:05:33.393Z,13.60
2024-05-09T23:08:41.115Z,13.51
2024-05-09T23:11:45.777Z,13.46
2024-05-09T23:14:50.652Z,13.45
2024-05-09T23:17:53.115Z,13.45
2024-05-09T23:20:58.292Z,13.46
2024-05-09T23:24:03.086Z,13.42
2024-05-09T23:27:07.992Z,13.39
2024-05-09T23:30:12.586Z,13.36
2024-05-09T23:33:20.616Z,13.35
2024-05-09T23:36:22.849Z,13.26
2024-05-09T23:39:30.175Z,13.22
2024-05-09T23:42:32.389Z,13.19
2024-05-09T23:45:37.408Z,13.18
2024-05-09T23:48:42.606Z,13.14
2024-05-09T23:51:44.990Z,13.09
2024-05-09T23:54:52.367Z,13.01
2024-05-09T23:57:57.918Z,13.02
